sensor_id;sensor_type;location;lat;lon;timestamp;pressure;altitude;pressure_sealevel;temperature;humidity
45357;BME280;31092;51.924;21.448;2023-01-30T00:01:41;100038.28;;;-0.32;100.00
45357;BME280;31092;51.924;21.448;2023-01-30T00:04:07;99985.41;;;-0.59;100.00
45357;BME280;31092;51.924;21.448;2023-01-30T00:06:32;99964.00;;;-0.69;100.00
45357;BME280;31092;51.924;21.448;2023-01-30T00:08:58;99964.56;;;-0.64;100.00
45357;BME280;31092;51.924;21.448;2023-01-30T00:11:23;99961.69;;;-0.61;100.00
45357;BME280;31092;51.924;21.448;2023-01-30T00:13:50;100036.13;;;-0.13;100.00
45357;BME280;31092;51.924;21.448;2023-01-30T00:16:16;99931.53;;;-0.71;100.00
45357;BME280;31092;51.924;21.448;2023-01-30T00:18:42;100009.34;;;-0.21;100.00
45357;BME280;31092;51.924;21.448;2023-01-30T00:21:10;99993.94;;;-0.29;100.00
45357;BME280;31092;51.924;21.448;2023-01-30T00:23:37;99920.84;;;-0.69;100.00
45357;BME280;31092;51.924;21.448;2023-01-30T00:26:04;100003.81;;;-0.18;100.00
45357;BME280;31092;51.924;21.448;2023-01-30T00:28:30;99986.00;;;-0.29;100.00
45357;BME280;31092;51.924;21.448;2023-01-30T00:30:56;99984.16;;;-0.14;100.00
45357;BME280;31092;51.924;21.448;2023-01-30T00:33:23;99939.41;;;-0.44;100.00
45357;BME280;31092;51.924;21.448;2023-01-30T00:35:50;100015.00;;;0.00;100.00
45357;BME280;31092;51.924;21.448;2023-01-30T00:38:16;99981.59;;;-0.15;100.00
45357;BME280;31092;51.924;21.448;2023-01-30T00:40:42;99996.34;;;0.02;100.00
45357;BME280;31092;51.924;21.448;2023-01-30T00:43:12;99980.22;;;-0.08;100.00
45357;BME280;31092;51.924;21.448;2023-01-30T00:45:58;99997.09;;;0.04;100.00
45357;BME280;31092;51.924;21.448;2023-01-30T00:48:43;99894.84;;;-0.50;100.00
45357;BME280;31092;51.924;21.448;2023-01-30T00:51:08;99960.41;;;-0.15;100.00
45357;BME280;31092;51.924;21.448;2023-01-30T00:53:34;99973.13;;;0.05;100.00
45357;BME280;31092;51.924;21.448;2023-01-30T00:55:59;99849.66;;;-0.60;100.00
45357;BME280;31092;51.924;21.448;2023-01-30T00:58:25;99845.22;;;-0.59;100.00
45357;BME280;31092;51.924;21.448;2023-01-30T01:00:51;99844.06;;;-0.55;100.00
45357;BME280;31092;51.924;21.448;2023-01-30T01:03:18;99873.56;;;-0.36;100.00
45357;BME280;31092;51.924;21.448;2023-01-30T01:05:43;99798.34;;;-0.70;100.00
45357;BME280;31092;51.924;21.448;2023-01-30T01:08:10;99899.31;;;-0.12;100.00
45357;BME280;31092;51.924;21.448;2023-01-30T01:10:35;99823.31;;;-0.49;100.00
45357;BME280;31092;51.924;21.448;2023-01-30T01:13:01;99894.88;;;0.01;100.00
45357;BME280;31092;51.924;21.448;2023-01-30T01:15:27;99870.72;;;-0.07;100.00
45357;BME280;31092;51.924;21.448;2023-01-30T01:17:53;99810.63;;;-0.43;100.00
45357;BME280;31092;51.924;21.448;2023-01-30T01:20:19;99858.13;;;-0.16;100.00
45357;BME280;31092;51.924;21.448;2023-01-30T01:22:45;99878.78;;;0.04;100.00
45357;BME280;31092;51.924;21.448;2023-01-30T01:25:14;99834.66;;;-0.21;100.00
45357;BME280;31092;51.924;21.448;2023-01-30T01:27:40;99784.81;;;-0.53;100.00
45357;BME280;31092;51.924;21.448;2023-01-30T01:30:06;99769.34;;;-0.59;100.00
45357;BME280;31092;51.924;21.448;2023-01-30T01:32:32;99745.13;;;-0.65;100.00
45357;BME280;31092;51.924;21.448;2023-01-30T01:34:58;99879.91;;;0.13;100.00
45357;BME280;31092;51.924;21.448;2023-01-30T01:37:23;99735.41;;;-0.65;100.00
45357;BME280;31092;51.924;21.448;2023-01-30T01:39:49;99790.78;;;-0.25;100.00
45357;BME280;31092;51.924;21.448;2023-01-30T01:42:35;99861.59;;;0.22;100.00
45357;BME280;31092;51.924;21.448;2023-01-30T01:48:20;99835.31;;;0.19;100.00
45357;BME280;31092;51.924;21.448;2023-01-30T01:51:08;99725.09;;;-0.44;100.00
45357;BME280;31092;51.924;21.448;2023-01-30T01:53:39;99819.84;;;0.13;100.00
45357;BME280;31092;51.924;21.448;2023-01-30T01:56:07;99729.84;;;-0.36;100.00
45357;BME280;31092;51.924;21.448;2023-01-30T01:58:45;99719.19;;;-0.35;100.00
45357;BME280;31092;51.924;21.448;2023-01-30T02:01:12;99742.50;;;-0.16;100.00
45357;BME280;31092;51.924;21.448;2023-01-30T02:03:41;99782.78;;;0.13;100.00
45357;BME280;31092;51.924;21.448;2023-01-30T02:06:09;99676.03;;;-0.48;100.00
45357;BME280;31092;51.924;21.448;2023-01-30T02:08:57;99670.19;;;-0.40;100.00
45357;BME280;31092;51.924;21.448;2023-01-30T02:13:49;99736.09;;;-0.01;100.00
45357;BME280;31092;51.924;21.448;2023-01-30T02:16:15;99750.28;;;0.11;100.00
45357;BME280;31092;51.924;21.448;2023-01-30T02:18:42;99706.09;;;-0.12;100.00
45357;BME280;31092;51.924;21.448;2023-01-30T02:33:16;99629.88;;;-0.44;100.00
45357;BME280;31092;51.924;21.448;2023-01-30T02:38:48;99659.22;;;-0.23;100.00
45357;BME280;31092;51.924;21.448;2023-01-30T02:41:34;99739.13;;;0.19;100.00
45357;BME280;31092;51.924;21.448;2023-01-30T02:44:08;99692.72;;;-0.11;100.00
45357;BME280;31092;51.924;21.448;2023-01-30T02:49:28;99612.13;;;-0.55;100.00
45357;BME280;31092;51.924;21.448;2023-01-30T02:51:56;99667.34;;;-0.13;100.00
45357;BME280;31092;51.924;21.448;2023-01-30T02:54:24;99702.72;;;0.10;100.00
45357;BME280;31092;51.924;21.448;2023-01-30T02:56:52;99602.44;;;-0.43;100.00
45357;BME280;31092;51.924;21.448;2023-01-30T02:59:25;99706.22;;;0.10;100.00
45357;BME280;31092;51.924;21.448;2023-01-30T03:10:32;99666.44;;;-0.01;100.00
45357;BME280;31092;51.924;21.448;2023-01-30T03:16:27;99681.53;;;0.10;100.00
45357;BME280;31092;51.924;21.448;2023-01-30T03:18:56;99662.59;;;0.03;100.00
45357;BME280;31092;51.924;21.448;2023-01-30T03:21:23;99612.44;;;-0.22;100.00
45357;BME280;31092;51.924;21.448;2023-01-30T03:23:49;99619.78;;;-0.15;100.00
45357;BME280;31092;51.924;21.448;2023-01-30T03:26:20;99621.50;;;-0.14;100.00
45357;BME280;31092;51.924;21.448;2023-01-30T03:28:48;99579.25;;;-0.39;100.00
45357;BME280;31092;51.924;21.448;2023-01-30T03:31:14;99649.28;;;0.05;100.00
45357;BME280;31092;51.924;21.448;2023-01-30T03:33:40;99546.84;;;-0.54;100.00
45357;BME280;31092;51.924;21.448;2023-01-30T03:36:05;99592.31;;;-0.25;100.00
45357;BME280;31092;51.924;21.448;2023-01-30T03:38:33;99590.22;;;-0.33;100.00
45357;BME280;31092;51.924;21.448;2023-01-30T03:40:58;99619.41;;;0.03;100.00
45357;BME280;31092;51.924;21.448;2023-01-30T03:43:24;99588.88;;;-0.14;100.00
45357;BME280;31092;51.924;21.448;2023-01-30T03:45:49;99450.59;;;-1.00;100.00
45357;BME280;31092;51.924;21.448;2023-01-30T03:48:15;99497.91;;;-0.60;100.00
45357;BME280;31092;51.924;21.448;2023-01-30T03:50:40;99559.41;;;-0.21;100.00
45357;BME280;31092;51.924;21.448;2023-01-30T03:53:05;99569.28;;;-0.12;100.00
45357;BME280;31092;51.924;21.448;2023-01-30T03:55:31;99462.59;;;-0.72;100.00
45357;BME280;31092;51.924;21.448;2023-01-30T03:57:56;99579.41;;;-0.06;100.00
45357;BME280;31092;51.924;21.448;2023-01-30T04:00:22;99553.75;;;-0.16;100.00
45357;BME280;31092;51.924;21.448;2023-01-30T04:02:48;99491.69;;;-0.47;100.00
45357;BME280;31092;51.924;21.448;2023-01-30T04:05:14;99559.75;;;-0.14;100.00
45357;BME280;31092;51.924;21.448;2023-01-30T04:07:39;99541.72;;;-0.20;100.00
45357;BME280;31092;51.924;21.448;2023-01-30T04:10:05;99394.78;;;-1.08;100.00
45357;BME280;31092;51.924;21.448;2023-01-30T04:12:30;99560.16;;;-0.08;100.00
45357;BME280;31092;51.924;21.448;2023-01-30T04:14:56;99474.19;;;-0.61;100.00
45357;BME280;31092;51.924;21.448;2023-01-30T04:17:21;99482.28;;;-0.52;100.00
45357;BME280;31092;51.924;21.448;2023-01-30T04:19:47;99430.38;;;-0.77;100.00
45357;BME280;31092;51.924;21.448;2023-01-30T04:22:12;99436.06;;;-0.70;100.00
45357;BME280;31092;51.924;21.448;2023-01-30T04:24:38;99506.56;;;-0.22;100.00
45357;BME280;31092;51.924;21.448;2023-01-30T04:27:03;99459.94;;;-0.47;100.00
45357;BME280;31092;51.924;21.448;2023-01-30T04:29:28;99525.25;;;-0.13;100.00
45357;BME280;31092;51.924;21.448;2023-01-30T04:31:54;99497.03;;;-0.25;100.00
45357;BME280;31092;51.924;21.448;2023-01-30T04:34:19;99533.06;;;-0.11;100.00
45357;BME280;31092;51.924;21.448;2023-01-30T04:36:45;99391.16;;;-0.83;100.00
45357;BME280;31092;51.924;21.448;2023-01-30T04:39:10;99503.56;;;-0.18;100.00
45357;BME280;31092;51.924;21.448;2023-01-30T04:41:36;99523.00;;;-0.06;100.00
45357;BME280;31092;51.924;21.448;2023-01-30T04:44:01;99477.97;;;-0.17;100.00
45357;BME280;31092;51.924;21.448;2023-01-30T04:46:26;99456.06;;;-0.19;100.00
45357;BME280;31092;51.924;21.448;2023-01-30T04:48:52;99460.91;;;-0.13;100.00
45357;BME280;31092;51.924;21.448;2023-01-30T04:51:17;99470.06;;;-0.06;100.00
45357;BME280;31092;51.924;21.448;2023-01-30T04:53:43;99348.53;;;-0.78;100.00
45357;BME280;31092;51.924;21.448;2023-01-30T04:56:08;99382.97;;;-0.56;100.00
45357;BME280;31092;51.924;21.448;2023-01-30T04:58:34;99357.94;;;-0.63;100.00
45357;BME280;31092;51.924;21.448;2023-01-30T05:03:50;99384.56;;;-0.42;100.00
45357;BME280;31092;51.924;21.448;2023-01-30T05:06:16;99388.91;;;-0.41;100.00
45357;BME280;31092;51.924;21.448;2023-01-30T05:08:41;99321.38;;;-0.80;100.00
45357;BME280;31092;51.924;21.448;2023-01-30T05:11:07;99424.78;;;-0.14;100.00
45357;BME280;31092;51.924;21.448;2023-01-30T05:13:32;99381.22;;;-0.33;100.00
45357;BME280;31092;51.924;21.448;2023-01-30T05:15:58;99328.88;;;-0.63;100.00
45357;BME280;31092;51.924;21.448;2023-01-30T05:18:23;99412.16;;;-0.11;100.00
45357;BME280;31092;51.924;21.448;2023-01-30T05:20:49;99408.56;;;-0.21;100.00
45357;BME280;31092;51.924;21.448;2023-01-30T05:23:14;99403.97;;;-0.19;100.00
45357;BME280;31092;51.924;21.448;2023-01-30T05:25:40;99420.47;;;-0.04;100.00
45357;BME280;31092;51.924;21.448;2023-01-30T05:28:05;99344.38;;;-0.47;100.00
45357;BME280;31092;51.924;21.448;2023-01-30T05:30:31;99380.28;;;-0.32;100.00
45357;BME280;31092;51.924;21.448;2023-01-30T05:32:57;99409.16;;;-0.06;100.00
45357;BME280;31092;51.924;21.448;2023-01-30T05:35:22;99400.03;;;-0.13;100.00
45357;BME280;31092;51.924;21.448;2023-01-30T05:37:51;99401.47;;;-0.09;100.00
45357;BME280;31092;51.924;21.448;2023-01-30T05:40:17;99384.75;;;-0.10;100.00
45357;BME280;31092;51.924;21.448;2023-01-30T05:42:42;99319.50;;;-0.44;100.00
45357;BME280;31092;51.924;21.448;2023-01-30T05:45:08;99385.13;;;-0.03;100.00
45357;BME280;31092;51.924;21.448;2023-01-30T05:47:34;99388.09;;;-0.08;100.00
45357;BME280;31092;51.924;21.448;2023-01-30T05:49:59;99307.47;;;-0.49;100.00
45357;BME280;31092;51.924;21.448;2023-01-30T05:52:25;99317.72;;;-0.33;100.00
45357;BME280;31092;51.924;21.448;2023-01-30T05:54:50;99249.03;;;-0.68;100.00
45357;BME280;31092;51.924;21.448;2023-01-30T05:57:16;99322.75;;;-0.30;100.00
45357;BME280;31092;51.924;21.448;2023-01-30T05:59:41;99333.72;;;-0.23;100.00
45357;BME280;31092;51.924;21.448;2023-01-30T06:02:07;99327.97;;;-0.28;100.00
45357;BME280;31092;51.924;21.448;2023-01-30T06:04:32;99235.09;;;-0.70;100.00
45357;BME280;31092;51.924;21.448;2023-01-30T06:06:58;99235.09;;;-0.70;100.00
45357;BME280;31092;51.924;21.448;2023-01-30T06:09:23;99223.41;;;-0.79;100.00
45357;BME280;31092;51.924;21.448;2023-01-30T06:11:48;99286.69;;;-0.42;100.00
45357;BME280;31092;51.924;21.448;2023-01-30T06:14:16;99291.63;;;-0.37;100.00
45357;BME280;31092;51.924;21.448;2023-01-30T06:16:42;99313.03;;;-0.29;100.00
45357;BME280;31092;51.924;21.448;2023-01-30T06:19:07;99222.47;;;-0.78;100.00
45357;BME280;31092;51.924;21.448;2023-01-30T06:21:33;99285.13;;;-0.33;100.00
45357;BME280;31092;51.924;21.448;2023-01-30T06:23:58;99236.41;;;-0.64;100.00
45357;BME280;31092;51.924;21.448;2023-01-30T06:26:24;99222.72;;;-0.69;100.00
45357;BME280;31092;51.924;21.448;2023-01-30T06:28:49;99261.69;;;-0.38;100.00
45357;BME280;31092;51.924;21.448;2023-01-30T06:31:15;99203.00;;;-0.77;100.00
45357;BME280;31092;51.924;21.448;2023-01-30T06:33:41;99191.34;;;-0.85;100.00
45357;BME280;31092;51.924;21.448;2023-01-30T06:36:08;99307.13;;;-0.21;100.00
45357;BME280;31092;51.924;21.448;2023-01-30T06:38:34;99286.94;;;-0.34;100.00
45357;BME280;31092;51.924;21.448;2023-01-30T06:40:59;99250.00;;;-0.46;100.00
45357;BME280;31092;51.924;21.448;2023-01-30T06:43:25;99241.81;;;-0.55;100.00
45357;BME280;31092;51.924;21.448;2023-01-30T06:45:50;99168.88;;;-0.91;100.00
45357;BME280;31092;51.924;21.448;2023-01-30T06:48:16;99173.91;;;-0.88;100.00
45357;BME280;31092;51.924;21.448;2023-01-30T06:50:41;99158.53;;;-0.94;100.00
45357;BME280;31092;51.924;21.448;2023-01-30T06:53:07;99156.84;;;-0.95;100.00
45357;BME280;31092;51.924;21.448;2023-01-30T06:55:33;99147.72;;;-1.02;100.00
45357;BME280;31092;51.924;21.448;2023-01-30T06:58:02;99128.25;;;-1.12;100.00
45357;BME280;31092;51.924;21.448;2023-01-30T07:00:28;99244.97;;;-0.50;100.00
45357;BME280;31092;51.924;21.448;2023-01-30T07:02:53;99175.22;;;-0.93;100.00
45357;BME280;31092;51.924;21.448;2023-01-30T07:05:19;99230.66;;;-0.58;100.00
45357;BME280;31092;51.924;21.448;2023-01-30T07:07:44;99203.84;;;-0.76;100.00
45357;BME280;31092;51.924;21.448;2023-01-30T07:10:10;99166.59;;;-0.95;100.00
45357;BME280;31092;51.924;21.448;2023-01-30T07:12:36;99218.75;;;-0.53;100.00
45357;BME280;31092;51.924;21.448;2023-01-30T07:15:03;99124.28;;;-1.18;100.00
45357;BME280;31092;51.924;21.448;2023-01-30T07:17:29;99221.03;;;-0.59;100.00
45357;BME280;31092;51.924;21.448;2023-01-30T07:19:54;99116.94;;;-1.26;100.00
45357;BME280;31092;51.924;21.448;2023-01-30T07:22:20;99221.28;;;-0.62;100.00
45357;BME280;31092;51.924;21.448;2023-01-30T07:24:45;99138.69;;;-1.11;100.00
45357;BME280;31092;51.924;21.448;2023-01-30T07:27:12;99143.63;;;-1.06;100.00
45357;BME280;31092;51.924;21.448;2023-01-30T07:29:38;99215.63;;;-0.58;100.00
45357;BME280;31092;51.924;21.448;2023-01-30T07:32:13;99238.09;;;-0.52;100.00
45357;BME280;31092;51.924;21.448;2023-01-30T07:34:39;99138.34;;;-1.06;100.00
45357;BME280;31092;51.924;21.448;2023-01-30T07:37:04;99116.00;;;-1.13;100.00
45357;BME280;31092;51.924;21.448;2023-01-30T07:39:30;99097.50;;;-1.13;100.00
45357;BME280;31092;51.924;21.448;2023-01-30T07:41:55;99208.16;;;-0.41;100.00
45357;BME280;31092;51.924;21.448;2023-01-30T07:44:21;99168.63;;;-0.65;100.00
45357;BME280;31092;51.924;21.448;2023-01-30T07:46:46;99146.41;;;-0.74;100.00
45357;BME280;31092;51.924;21.448;2023-01-30T07:49:12;99183.88;;;-0.46;100.00
45357;BME280;31092;51.924;21.448;2023-01-30T07:51:41;99066.03;;;-1.05;100.00
45357;BME280;31092;51.924;21.448;2023-01-30T07:54:08;99134.38;;;-0.67;100.00
45357;BME280;31092;51.924;21.448;2023-01-30T07:56:34;99067.09;;;-1.08;100.00
45357;BME280;31092;51.924;21.448;2023-01-30T07:59:00;99175.22;;;-0.49;100.00
45357;BME280;31092;51.924;21.448;2023-01-30T08:01:26;99176.53;;;-0.43;100.00
45357;BME280;31092;51.924;21.448;2023-01-30T08:03:52;99032.66;;;-1.40;100.00
45357;BME280;31092;51.924;21.448;2023-01-30T08:06:17;99150.84;;;-0.63;100.00
45357;BME280;31092;51.924;21.448;2023-01-30T08:08:43;99063.25;;;-1.15;100.00
45357;BME280;31092;51.924;21.448;2023-01-30T08:11:21;99140.59;;;-0.68;100.00
45357;BME280;31092;51.924;21.448;2023-01-30T08:13:47;99114.44;;;-0.93;100.00
45357;BME280;31092;51.924;21.448;2023-01-30T08:16:13;99109.88;;;-0.91;100.00
45357;BME280;31092;51.924;21.448;2023-01-30T08:18:38;99128.25;;;-0.90;100.00
45357;BME280;31092;51.924;21.448;2023-01-30T08:21:05;99166.56;;;-0.62;100.00
45357;BME280;31092;51.924;21.448;2023-01-30T08:23:32;99123.22;;;-0.82;100.00
45357;BME280;31092;51.924;21.448;2023-01-30T08:25:59;99142.06;;;-0.64;100.00
45357;BME280;31092;51.924;21.448;2023-01-30T08:28:26;99095.22;;;-0.95;100.00
45357;BME280;31092;51.924;21.448;2023-01-30T08:30:52;99102.06;;;-0.82;100.00
45357;BME280;31092;51.924;21.448;2023-01-30T08:33:19;99101.56;;;-0.87;100.00
45357;BME280;31092;51.924;21.448;2023-01-30T08:35:45;99018.59;;;-1.29;100.00
45357;BME280;31092;51.924;21.448;2023-01-30T08:38:11;99013.44;;;-1.31;100.00
45357;BME280;31092;51.924;21.448;2023-01-30T08:40:36;99083.91;;;-0.86;100.00
45357;BME280;31092;51.924;21.448;2023-01-30T08:43:02;99033.38;;;-1.15;100.00
45357;BME280;31092;51.924;21.448;2023-01-30T08:45:28;98949.59;;;-1.70;100.00
45357;BME280;31092;51.924;21.448;2023-01-30T08:48:00;99022.31;;;-1.32;100.00
45357;BME280;31092;51.924;21.448;2023-01-30T08:50:26;99122.25;;;-0.69;100.00
45357;BME280;31092;51.924;21.448;2023-01-30T08:52:51;99006.47;;;-1.43;100.00
45357;BME280;31092;51.924;21.448;2023-01-30T08:55:17;99094.25;;;-0.94;100.00
45357;BME280;31092;51.924;21.448;2023-01-30T08:57:43;99119.47;;;-0.90;100.00
45357;BME280;31092;51.924;21.448;2023-01-30T09:00:09;99110.94;;;-0.94;100.00
45357;BME280;31092;51.924;21.448;2023-01-30T09:02:35;99081.28;;;-1.09;100.00
45357;BME280;31092;51.924;21.448;2023-01-30T09:05:01;99061.00;;;-1.31;100.00
45357;BME280;31092;51.924;21.448;2023-01-30T09:07:26;99082.38;;;-1.11;100.00
45357;BME280;31092;51.924;21.448;2023-01-30T09:09:53;99102.66;;;-1.01;100.00
45357;BME280;31092;51.924;21.448;2023-01-30T09:12:19;99087.53;;;-1.10;100.00
45357;BME280;31092;51.924;21.448;2023-01-30T09:14:45;98991.69;;;-1.68;100.00
45357;BME280;31092;51.924;21.448;2023-01-30T09:17:10;99073.97;;;-1.16;100.00
45357;BME280;31092;51.924;21.448;2023-01-30T09:19:36;99094.25;;;-0.94;100.00
45357;BME280;31092;51.924;21.448;2023-01-30T09:22:01;98982.34;;;-1.61;100.00
45357;BME280;31092;51.924;21.448;2023-01-30T09:24:27;98971.69;;;-1.71;100.00
45357;BME280;31092;51.924;21.448;2023-01-30T09:26:53;99077.19;;;-1.02;100.00
45357;BME280;31092;51.924;21.448;2023-01-30T09:29:22;98959.09;;;-1.67;100.00
45357;BME280;31092;51.924;21.448;2023-01-30T09:31:48;99040.47;;;-1.16;100.00
45357;BME280;31092;51.924;21.448;2023-01-30T09:34:14;99025.22;;;-1.24;100.00
45357;BME280;31092;51.924;21.448;2023-01-30T09:36:39;99027.03;;;-1.24;100.00
45357;BME280;31092;51.924;21.448;2023-01-30T09:39:05;99017.38;;;-1.25;100.00
45357;BME280;31092;51.924;21.448;2023-01-30T09:41:55;99037.94;;;-1.06;100.00
45357;BME280;31092;51.924;21.448;2023-01-30T09:47:34;98920.09;;;-1.63;100.00
45357;BME280;31092;51.924;21.448;2023-01-30T09:55:37;98988.22;;;-1.12;100.00
45357;BME280;31092;51.924;21.448;2023-01-30T09:58:03;98994.94;;;-1.08;100.00
45357;BME280;31092;51.924;21.448;2023-01-30T10:00:38;98973.19;;;-1.12;100.00
45357;BME280;31092;51.924;21.448;2023-01-30T10:03:12;98909.50;;;-1.52;100.00
45357;BME280;31092;51.924;21.448;2023-01-30T10:05:42;99006.91;;;-0.93;100.00
45357;BME280;31092;51.924;21.448;2023-01-30T10:11:41;99009.69;;;-0.94;100.00
45357;BME280;31092;51.924;21.448;2023-01-30T10:13:53;98945.81;;;-1.22;100.00
45357;BME280;31092;51.924;21.448;2023-01-30T10:16:29;98887.28;;;-1.50;100.00
45357;BME280;31092;51.924;21.448;2023-01-30T10:19:33;98989.09;;;-0.80;100.00
45357;BME280;31092;51.924;21.448;2023-01-30T10:22:10;98984.41;;;-0.76;100.00
45357;BME280;31092;51.924;21.448;2023-01-30T10:27:30;98962.88;;;-0.72;100.00
45357;BME280;31092;51.924;21.448;2023-01-30T10:30:00;98950.72;;;-0.63;100.00
45357;BME280;31092;51.924;21.448;2023-01-30T10:33:14;98979.41;;;-0.58;100.00
45357;BME280;31092;51.924;21.448;2023-01-30T10:35:26;98929.13;;;-0.79;100.00
45357;BME280;31092;51.924;21.448;2023-01-30T10:38:19;98944.84;;;-0.66;100.00
45357;BME280;31092;51.924;21.448;2023-01-30T10:41:22;98943.16;;;-0.67;100.00
45357;BME280;31092;51.924;21.448;2023-01-30T10:44:04;98743.03;;;-1.83;100.00
45357;BME280;31092;51.924;21.448;2023-01-30T10:49:04;98893.50;;;-0.85;100.00
45357;BME280;31092;51.924;21.448;2023-01-30T10:59:58;98819.41;;;-1.27;100.00
45357;BME280;31092;51.924;21.448;2023-01-30T11:02:16;98901.22;;;-0.72;100.00
45357;BME280;31092;51.924;21.448;2023-01-30T11:05:03;98914.53;;;-0.62;100.00
45357;BME280;31092;51.924;21.448;2023-01-30T11:07:34;98786.94;;;-1.38;100.00
45357;BME280;31092;51.924;21.448;2023-01-30T11:10:00;98770.59;;;-1.43;100.00
45357;BME280;31092;51.924;21.448;2023-01-30T11:12:25;98858.16;;;-0.84;100.00
45357;BME280;31092;51.924;21.448;2023-01-30T11:14:55;98886.78;;;-0.68;100.00
45357;BME280;31092;51.924;21.448;2023-01-30T11:17:32;98788.06;;;-1.20;100.00
45357;BME280;31092;51.924;21.448;2023-01-30T11:20:06;98807.19;;;-1.07;100.00
45357;BME280;31092;51.924;21.448;2023-01-30T11:22:34;98879.91;;;-0.59;100.00
45357;BME280;31092;51.924;21.448;2023-01-30T11:25:04;98773.63;;;-1.16;100.00
45357;BME280;31092;51.924;21.448;2023-01-30T11:27:32;98849.91;;;-0.69;100.00
45357;BME280;31092;51.924;21.448;2023-01-30T11:30:19;98833.47;;;-0.73;100.00
45357;BME280;31092;51.924;21.448;2023-01-30T11:32:48;98862.66;;;-0.54;100.00
45357;BME280;31092;51.924;21.448;2023-01-30T11:37:42;98776.97;;;-0.93;100.00
45357;BME280;31092;51.924;21.448;2023-01-30T11:42:48;98814.38;;;-0.56;100.00
45357;BME280;31092;51.924;21.448;2023-01-30T11:45:13;98818.81;;;-0.56;100.00
45357;BME280;31092;51.924;21.448;2023-01-30T11:47:57;98770.78;;;-0.82;100.00
45357;BME280;31092;51.924;21.448;2023-01-30T11:50:29;98694.63;;;-1.19;100.00
45357;BME280;31092;51.924;21.448;2023-01-30T11:53:00;98734.44;;;-0.90;100.00
45357;BME280;31092;51.924;21.448;2023-01-30T11:55:27;98725.34;;;-0.97;100.00
45357;BME280;31092;51.924;21.448;2023-01-30T11:57:55;98722.78;;;-0.87;100.00
45357;BME280;31092;51.924;21.448;2023-01-30T12:00:36;98729.88;;;-0.88;100.00
45357;BME280;31092;51.924;21.448;2023-01-30T12:03:04;98714.66;;;-0.95;100.00
45357;BME280;31092;51.924;21.448;2023-01-30T12:05:35;98825.09;;;-0.27;100.00
45357;BME280;31092;51.924;21.448;2023-01-30T12:10:47;98804.13;;;-0.49;100.00
45357;BME280;31092;51.924;21.448;2023-01-30T12:16:08;98742.59;;;-0.72;100.00
45357;BME280;31092;51.924;21.448;2023-01-30T12:26:23;98792.78;;;-0.30;100.00
45357;BME280;31092;51.924;21.448;2023-01-30T12:32:16;98788.91;;;-0.26;100.00
45357;BME280;31092;51.924;21.448;2023-01-30T12:34:44;98760.31;;;-0.32;100.00
45357;BME280;31092;51.924;21.448;2023-01-30T12:38:14;98809.03;;;-0.04;100.00
45357;BME280;31092;51.924;21.448;2023-01-30T12:40:40;98794.97;;;-0.05;100.00
45357;BME280;31092;51.924;21.448;2023-01-30T12:46:20;98793.03;;;-0.03;100.00
45357;BME280;31092;51.924;21.448;2023-01-30T12:51:44;98746.09;;;-0.41;100.00
45357;BME280;31092;51.924;21.448;2023-01-30T12:57:01;98761.03;;;-0.30;100.00
45357;BME280;31092;51.924;21.448;2023-01-30T12:59:37;98801.94;;;-0.04;100.00
45357;BME280;31092;51.924;21.448;2023-01-30T13:02:38;98800.00;;;-0.02;100.00
45357;BME280;31092;51.924;21.448;2023-01-30T13:05:33;98806.13;;;-0.01;100.00
45357;BME280;31092;51.924;21.448;2023-01-30T13:08:34;98792.72;;;-0.09;100.00
45357;BME280;31092;51.924;21.448;2023-01-30T13:11:21;98795.53;;;-0.01;100.00
45357;BME280;31092;51.924;21.448;2023-01-30T13:14:09;98797.91;;;0.02;100.00
45357;BME280;31092;51.924;21.448;2023-01-30T13:19:29;98769.19;;;-0.12;100.00
45357;BME280;31092;51.924;21.448;2023-01-30T13:27:23;98705.84;;;-0.44;100.00
45357;BME280;31092;51.924;21.448;2023-01-30T13:29:52;98667.78;;;-0.63;100.00
45357;BME280;31092;51.924;21.448;2023-01-30T13:32:45;98785.81;;;0.09;100.00
45357;BME280;31092;51.924;21.448;2023-01-30T13:35:23;98680.50;;;-0.57;100.00
45357;BME280;31092;51.924;21.448;2023-01-30T13:37:51;98692.19;;;-0.50;100.00
45357;BME280;31092;51.924;21.448;2023-01-30T13:40:22;98676.88;;;-0.56;100.00
45357;BME280;31092;51.924;21.448;2023-01-30T13:42:55;98747.75;;;-0.09;100.00
45357;BME280;31092;51.924;21.448;2023-01-30T13:45:25;98684.53;;;-0.43;100.00
45357;BME280;31092;51.924;21.448;2023-01-30T13:50:53;98774.25;;;0.10;100.00
45357;BME280;31092;51.924;21.448;2023-01-30T13:53:38;98685.47;;;-0.54;100.00
45357;BME280;31092;51.924;21.448;2023-01-30T13:56:21;98769.66;;;0.12;100.00
45357;BME280;31092;51.924;21.448;2023-01-30T13:59:01;98762.81;;;0.00;100.00
45357;BME280;31092;51.924;21.448;2023-01-30T14:12:53;98772.72;;;0.17;100.00
45357;BME280;31092;51.924;21.448;2023-01-30T14:15:24;98695.06;;;-0.32;100.00
45357;BME280;31092;51.924;21.448;2023-01-30T14:20:24;98724.63;;;-0.07;100.00
45357;BME280;31092;51.924;21.448;2023-01-30T14:22:59;98674.41;;;-0.38;100.00
45357;BME280;31092;51.924;21.448;2023-01-30T14:38:23;98782.66;;;0.15;100.00
45357;BME280;31092;51.924;21.448;2023-01-30T14:53:59;98814.97;;;0.19;100.00
45357;BME280;31092;51.924;21.448;2023-01-30T14:56:45;98780.38;;;0.01;100.00
45357;BME280;31092;51.924;21.448;2023-01-30T15:07:26;98807.47;;;0.24;100.00
45357;BME280;31092;51.924;21.448;2023-01-30T15:28:59;98733.03;;;-0.33;100.00
45357;BME280;31092;51.924;21.448;2023-01-30T15:31:29;98728.56;;;-0.32;100.00
45357;BME280;31092;51.924;21.448;2023-01-30T15:33:54;98729.81;;;-0.36;100.00
45357;BME280;31092;51.924;21.448;2023-01-30T15:36:32;98793.47;;;0.03;100.00
45357;BME280;31092;51.924;21.448;2023-01-30T15:39:03;98719.06;;;-0.44;100.00
45357;BME280;31092;51.924;21.448;2023-01-30T15:41:31;98792.22;;;-0.03;100.00
45357;BME280;31092;51.924;21.448;2023-01-30T15:44:29;98829.63;;;0.23;100.00